Time;durP1;ratioP1;P1;durP2;ratioP2;P2;SDS_P1;SDS_P2;PMS_P1;PMS_P2;Temp;Humidity;BMP_temperature;BMP_pressure;BME280_temperature;BME280_humidity;BME280_pressure;Samples;Min_cycle;Max_cycle;Signal;HPM_P1;HPM_P2
2023/11/06 00:01:35;;;;;;;;;;;13.50;70.30;;;;;;5019785;28;82121;-48
2023/11/06 00:04:01;;;;;;;;;;;13.60;70.50;;;;;;5018609;28;82985;-48
2023/11/06 00:06:26;;;;;;;;;;;13.50;70.50;;;;;;5014380;28;82834;-49
2023/11/06 00:08:54;;;;;;;;;;;13.60;70.40;;;;;;5020623;28;83067;-49
2023/11/06 00:11:19;;;;;;;;;;;13.60;70.30;;;;;;5018363;28;82097;-47
2023/11/06 00:13:45;;;;;;;;;;;13.60;70.60;;;;;;5017897;28;82331;-46
2023/11/06 00:16:11;;;;;;;;;;;13.60;70.50;;;;;;5018802;28;82741;-47
2023/11/06 00:18:37;;;;;;;;;;;13.50;70.50;;;;;;5018566;28;82047;-46
2023/11/06 00:21:02;;;;;;;;;;;13.50;70.50;;;;;;5015759;28;81429;-50
2023/11/06 00:23:28;;;;;;;;;;;13.50;70.60;;;;;;5018647;28;82050;-47
2023/11/06 00:25:53;;;;;;;;;;;13.60;70.50;;;;;;5024120;28;82376;-50
2023/11/06 00:28:19;;;;;;;;;;;13.60;70.60;;;;;;5020428;28;84350;-45
2023/11/06 00:30:45;;;;;;;;;;;13.60;70.50;;;;;;5019025;28;82061;-46
2023/11/06 00:33:11;;;;;;;;;;;13.50;70.50;;;;;;5016881;28;82478;-50
2023/11/06 00:35:36;;;;;;;;;;;13.60;70.60;;;;;;5019467;28;83201;-48
2023/11/06 00:38:02;;;;;;;;;;;13.50;70.40;;;;;;5021981;28;81856;-47
2023/11/06 00:40:28;;;;;;;;;;;13.60;70.60;;;;;;5019387;28;83432;-49
2023/11/06 00:42:54;;;;;;;;;;;13.60;70.50;;;;;;5015140;28;82059;-49
2023/11/06 00:45:19;;;;;;;;;;;13.50;70.50;;;;;;5020757;28;82482;-46
2023/11/06 00:47:46;;;;;;;;;;;13.50;70.50;;;;;;5018655;28;83198;-44
2023/11/06 00:50:12;;;;;;;;;;;13.60;70.50;;;;;;5017771;28;82134;-47
2023/11/06 00:52:38;;;;;;;;;;;13.50;70.50;;;;;;5018811;28;84563;-49
2023/11/06 00:55:04;;;;;;;;;;;13.50;70.50;;;;;;5020672;28;84329;-47
2023/11/06 00:57:29;;;;;;;;;;;13.50;70.60;;;;;;5024492;28;82163;-47
2023/11/06 00:59:55;;;;;;;;;;;13.60;70.50;;;;;;5024648;28;82614;-47
2023/11/06 01:02:20;;;;;;;;;;;13.50;70.70;;;;;;5015900;28;81998;-46
2023/11/06 01:04:46;;;;;;;;;;;13.60;70.70;;;;;;5018451;28;83215;-50
2023/11/06 01:07:11;;;;;;;;;;;13.50;70.40;;;;;;5021621;28;84523;-47
2023/11/06 01:09:37;;;;;;;;;;;13.50;70.50;;;;;;5022285;28;81374;-47
2023/11/06 01:12:03;;;;;;;;;;;13.50;70.70;;;;;;5018291;28;83334;-47
2023/11/06 01:14:28;;;;;;;;;;;13.50;70.60;;;;;;5018153;28;82823;-48
2023/11/06 01:16:54;;;;;;;;;;;13.50;70.70;;;;;;5016233;28;83171;-47
2023/11/06 01:19:20;;;;;;;;;;;13.50;70.60;;;;;;5022865;28;83396;-45
2023/11/06 01:21:45;;;;;;;;;;;13.50;70.50;;;;;;5015870;28;82874;-49
2023/11/06 01:24:11;;;;;;;;;;;13.50;70.60;;;;;;5019389;28;82330;-46
2023/11/06 01:26:36;;;;;;;;;;;13.50;70.60;;;;;;5015799;28;82111;-45
2023/11/06 01:29:02;;;;;;;;;;;13.50;70.50;;;;;;5016473;28;82031;-49
2023/11/06 01:31:30;;;;;;;;;;;13.50;70.70;;;;;;5014147;28;82373;-45
2023/11/06 01:33:56;;;;;;;;;;;13.50;70.60;;;;;;5018840;28;82389;-49
2023/11/06 01:36:22;;;;;;;;;;;13.50;70.70;;;;;;5015392;28;82104;-47
2023/11/06 01:38:48;;;;;;;;;;;13.50;70.70;;;;;;5017353;28;82406;-48
2023/11/06 01:41:13;;;;;;;;;;;13.50;70.70;;;;;;5014003;28;85117;-46
2023/11/06 01:43:39;;;;;;;;;;;13.50;70.60;;;;;;5020133;28;81979;-45
2023/11/06 01:46:04;;;;;;;;;;;13.50;70.50;;;;;;5015658;28;82175;-48
2023/11/06 01:48:30;;;;;;;;;;;13.50;70.40;;;;;;5017420;28;82914;-48
2023/11/06 01:50:56;;;;;;;;;;;13.50;70.50;;;;;;5017192;28;81976;-48
2023/11/06 01:53:22;;;;;;;;;;;13.50;70.70;;;;;;5017200;28;83040;-51
2023/11/06 01:55:50;;;;;;;;;;;13.50;70.70;;;;;;5014885;28;81940;-48
2023/11/06 01:58:17;;;;;;;;;;;13.50;70.70;;;;;;5014519;28;82462;-47
2023/11/06 02:00:45;;;;;;;;;;;13.50;70.60;;;;;;5013833;28;84532;-48
2023/11/06 02:03:10;;;;;;;;;;;13.50;70.50;;;;;;5017075;28;82111;-47
2023/11/06 02:05:37;;;;;;;;;;;13.50;70.70;;;;;;5016486;28;82841;-48
2023/11/06 02:08:04;;;;;;;;;;;13.50;70.70;;;;;;5016445;28;81956;-50
2023/11/06 02:10:29;;;;;;;;;;;13.50;70.60;;;;;;5015012;28;82544;-46
2023/11/06 02:12:55;;;;;;;;;;;13.50;70.70;;;;;;5015337;28;82430;-47
2023/11/06 02:15:20;;;;;;;;;;;13.50;70.60;;;;;;5014844;28;82106;-46
2023/11/06 02:17:46;;;;;;;;;;;13.50;70.70;;;;;;5016059;28;82453;-47
2023/11/06 02:20:12;;;;;;;;;;;13.50;70.70;;;;;;5017960;28;82940;-48
2023/11/06 02:22:42;;;;;;;;;;;13.40;70.50;;;;;;5015921;28;81359;-48
2023/11/06 02:25:08;;;;;;;;;;;13.50;70.70;;;;;;5016752;28;82635;-47
2023/11/06 02:27:33;;;;;;;;;;;13.50;70.60;;;;;;5016172;28;82258;-45
2023/11/06 02:29:59;;;;;;;;;;;13.50;70.50;;;;;;5015941;28;83052;-46
2023/11/06 02:32:25;;;;;;;;;;;13.50;70.50;;;;;;5014154;28;82712;-47
2023/11/06 02:34:50;;;;;;;;;;;13.50;70.40;;;;;;5018129;28;83019;-46
2023/11/06 02:37:17;;;;;;;;;;;13.50;70.60;;;;;;5020646;28;83896;-46
2023/11/06 02:39:43;;;;;;;;;;;13.50;70.50;;;;;;5022485;28;83578;-46
2023/11/06 02:42:09;;;;;;;;;;;13.50;70.40;;;;;;5019384;28;82091;-46
2023/11/06 02:44:34;;;;;;;;;;;13.40;70.40;;;;;;5020446;28;82390;-49
2023/11/06 02:47:00;;;;;;;;;;;13.40;70.30;;;;;;5020395;28;82098;-46
2023/11/06 02:49:25;;;;;;;;;;;13.50;70.40;;;;;;5022957;28;82236;-45
2023/11/06 02:51:52;;;;;;;;;;;13.50;70.40;;;;;;5020065;28;84361;-47
2023/11/06 02:54:21;;;;;;;;;;;13.50;70.40;;;;;;5016004;28;83050;-46
2023/11/06 02:56:47;;;;;;;;;;;13.40;70.30;;;;;;5019889;28;84971;-49
2023/11/06 02:59:12;;;;;;;;;;;13.40;70.20;;;;;;5017330;28;82884;-49
2023/11/06 03:01:40;;;;;;;;;;;13.40;70.30;;;;;;5021314;28;82049;-49
2023/11/06 03:04:06;;;;;;;;;;;13.40;70.30;;;;;;5019172;28;84150;-48
2023/11/06 03:06:31;;;;;;;;;;;13.40;70.40;;;;;;5018058;28;83092;-48
2023/11/06 03:08:57;;;;;;;;;;;13.40;70.30;;;;;;5021822;28;82098;-45
2023/11/06 03:11:23;;;;;;;;;;;13.40;70.30;;;;;;5018081;28;81429;-48
2023/11/06 03:13:48;;;;;;;;;;;13.40;70.50;;;;;;5018899;28;82037;-47
2023/11/06 03:16:17;;;;;;;;;;;13.40;70.30;;;;;;5018154;28;82390;-47
2023/11/06 03:18:43;;;;;;;;;;;13.40;70.50;;;;;;5017024;28;84670;-48
2023/11/06 03:21:09;;;;;;;;;;;13.40;70.50;;;;;;5018660;28;82078;-49
2023/11/06 03:23:35;;;;;;;;;;;13.40;70.40;;;;;;5020563;28;82723;-48
2023/11/06 03:26:00;;;;;;;;;;;13.40;70.40;;;;;;5019009;28;82158;-48
2023/11/06 03:28:26;;;;;;;;;;;13.40;70.40;;;;;;5017513;28;81971;-46
2023/11/06 03:30:51;;;;;;;;;;;13.40;70.40;;;;;;5021917;28;82289;-48
2023/11/06 03:33:17;;;;;;;;;;;13.40;70.40;;;;;;5015750;28;82322;-48
2023/11/06 03:35:42;;;;;;;;;;;13.40;70.50;;;;;;5018802;28;82736;-45
2023/11/06 03:38:09;;;;;;;;;;;13.40;70.40;;;;;;5015514;28;82961;-47
2023/11/06 03:40:35;;;;;;;;;;;13.40;70.50;;;;;;5015582;28;82068;-51
2023/11/06 03:43:00;;;;;;;;;;;13.30;70.60;;;;;;5019205;28;83003;-48
2023/11/06 03:45:26;;;;;;;;;;;13.30;70.40;;;;;;5018885;28;83015;-45
2023/11/06 03:47:52;;;;;;;;;;;13.40;70.40;;;;;;5017798;28;82485;-51
2023/11/06 03:50:18;;;;;;;;;;;13.40;70.30;;;;;;5015869;28;84513;-45
2023/11/06 03:52:43;;;;;;;;;;;13.30;70.30;;;;;;5022411;28;82032;-46
2023/11/06 03:55:09;;;;;;;;;;;13.30;70.40;;;;;;5015901;28;82836;-45
2023/11/06 03:57:34;;;;;;;;;;;13.30;70.70;;;;;;5019687;28;83099;-49
2023/11/06 04:00:00;;;;;;;;;;;13.30;70.40;;;;;;5016551;28;81250;-47
2023/11/06 04:02:25;;;;;;;;;;;13.30;70.60;;;;;;5019570;28;81945;-48
2023/11/06 04:04:51;;;;;;;;;;;13.30;70.50;;;;;;5015877;28;83042;-47
2023/11/06 04:07:17;;;;;;;;;;;13.30;70.60;;;;;;5018308;28;83090;-49
2023/11/06 04:09:42;;;;;;;;;;;13.30;70.60;;;;;;5013844;28;83218;-50
2023/11/06 04:12:08;;;;;;;;;;;13.30;70.60;;;;;;5015601;28;82666;-46
2023/11/06 04:14:33;;;;;;;;;;;13.20;70.40;;;;;;5023820;28;82920;-49
2023/11/06 04:16:59;;;;;;;;;;;13.30;70.40;;;;;;5021025;28;84016;-45
2023/11/06 04:19:25;;;;;;;;;;;13.20;70.80;;;;;;5018497;28;82745;-51
2023/11/06 04:21:51;;;;;;;;;;;13.30;71.30;;;;;;5018830;28;83731;-45
2023/11/06 04:24:17;;;;;;;;;;;13.20;70.60;;;;;;5018534;28;82191;-46
2023/11/06 04:26:42;;;;;;;;;;;13.20;70.60;;;;;;5020908;28;82064;-47
2023/11/06 04:29:08;;;;;;;;;;;13.30;70.50;;;;;;5016880;28;82445;-46
2023/11/06 04:31:33;;;;;;;;;;;13.20;70.60;;;;;;5016906;28;84058;-45
2023/11/06 04:33:59;;;;;;;;;;;13.20;70.60;;;;;;5016667;28;82164;-45
2023/11/06 04:36:24;;;;;;;;;;;13.20;70.60;;;;;;5020119;28;82426;-46
2023/11/06 04:38:50;;;;;;;;;;;13.20;70.70;;;;;;5016892;28;82071;-45
2023/11/06 04:41:16;;;;;;;;;;;13.20;70.60;;;;;;5017089;28;84039;-49
2023/11/06 04:43:42;;;;;;;;;;;13.20;70.60;;;;;;5016970;28;83061;-48
2023/11/06 04:46:07;;;;;;;;;;;13.20;70.60;;;;;;5017023;28;82076;-47
2023/11/06 04:48:33;;;;;;;;;;;13.20;70.70;;;;;;5017640;28;82368;-46
2023/11/06 04:50:59;;;;;;;;;;;13.20;70.60;;;;;;5016519;28;82231;-50
2023/11/06 04:53:24;;;;;;;;;;;13.20;70.40;;;;;;5017312;28;82079;-49
2023/11/06 04:55:50;;;;;;;;;;;13.20;70.60;;;;;;5018867;28;82972;-48
2023/11/06 04:58:16;;;;;;;;;;;13.20;70.40;;;;;;5017110;28;82098;-47
2023/11/06 05:00:41;;;;;;;;;;;13.20;70.40;;;;;;5016027;28;82233;-49
2023/11/06 05:03:07;;;;;;;;;;;13.20;70.40;;;;;;5017365;28;84684;-48
2023/11/06 05:05:33;;;;;;;;;;;13.20;70.40;;;;;;5015405;28;82115;-48
2023/11/06 05:07:58;;;;;;;;;;;13.10;70.50;;;;;;5017565;28;83972;-50
2023/11/06 05:10:24;;;;;;;;;;;13.20;70.60;;;;;;5015383;28;82131;-45
2023/11/06 05:12:49;;;;;;;;;;;13.10;70.50;;;;;;5017753;28;81290;-45
2023/11/06 05:15:15;;;;;;;;;;;13.10;70.50;;;;;;5015256;28;81955;-46
2023/11/06 05:17:41;;;;;;;;;;;13.10;70.40;;;;;;5020196;28;83402;-46
2023/11/06 05:20:09;;;;;;;;;;;13.10;70.30;;;;;;5015248;28;82900;-48
2023/11/06 05:22:36;;;;;;;;;;;13.10;70.30;;;;;;5013860;28;84463;-46
2023/11/06 05:25:02;;;;;;;;;;;13.20;70.50;;;;;;5014397;28;81980;-47
2023/11/06 05:27:28;;;;;;;;;;;13.20;70.30;;;;;;5017877;28;82463;-47
2023/11/06 05:29:53;;;;;;;;;;;13.20;70.30;;;;;;5014595;28;84475;-47
2023/11/06 05:32:19;;;;;;;;;;;13.10;70.30;;;;;;5018014;28;82166;-47
2023/11/06 05:34:45;;;;;;;;;;;13.10;70.30;;;;;;5016908;28;83921;-46
2023/11/06 05:37:10;;;;;;;;;;;13.10;70.40;;;;;;5012814;28;83581;-50
2023/11/06 05:39:39;;;;;;;;;;;13.10;70.40;;;;;;5019930;28;82117;-46
2023/11/06 05:42:05;;;;;;;;;;;13.10;70.30;;;;;;5018979;28;83699;-51
2023/11/06 05:44:31;;;;;;;;;;;13.10;70.30;;;;;;5015752;28;82949;-46
2023/11/06 05:46:56;;;;;;;;;;;13.10;70.40;;;;;;5016413;28;83439;-51
2023/11/06 05:49:22;;;;;;;;;;;13.10;70.30;;;;;;5013363;28;83005;-50
2023/11/06 05:51:49;;;;;;;;;;;13.10;70.30;;;;;;5016328;28;83817;-50
2023/11/06 05:54:15;;;;;;;;;;;13.10;70.40;;;;;;5021932;28;83881;-48
2023/11/06 05:56:40;;;;;;;;;;;13.10;70.30;;;;;;5016376;28;82997;-52
2023/11/06 05:59:06;;;;;;;;;;;13.10;70.30;;;;;;5008980;28;82101;-49
2023/11/06 06:01:31;;;;;;;;;;;13.10;70.10;;;;;;5020468;28;81596;-50
2023/11/06 06:03:57;;;;;;;;;;;13.10;70.20;;;;;;5023525;28;82224;-49
2023/11/06 06:06:24;;;;;;;;;;;13.10;70.20;;;;;;5012992;28;82417;-51
2023/11/06 06:08:50;;;;;;;;;;;13.10;70.10;;;;;;5013894;28;85641;-48
2023/11/06 06:11:16;;;;;;;;;;;13.10;70.20;;;;;;5016522;28;82306;-49
2023/11/06 06:13:41;;;;;;;;;;;13.10;70.10;;;;;;5017239;28;82418;-48
2023/11/06 06:16:07;;;;;;;;;;;13.10;70.10;;;;;;5017190;28;82936;-51
2023/11/06 06:18:33;;;;;;;;;;;13.10;70.10;;;;;;5012244;28;83352;-47
2023/11/06 06:20:58;;;;;;;;;;;13.10;70.00;;;;;;5020591;28;82510;-48
2023/11/06 06:23:24;;;;;;;;;;;13.10;70.00;;;;;;5019603;28;83084;-48
2023/11/06 06:25:49;;;;;;;;;;;13.10;69.90;;;;;;5018090;28;82410;-51
2023/11/06 06:28:15;;;;;;;;;;;13.10;69.80;;;;;;5015745;28;84207;-48
2023/11/06 06:30:40;;;;;;;;;;;13.10;69.90;;;;;;5017480;28;82170;-49
2023/11/06 06:33:06;;;;;;;;;;;13.10;69.80;;;;;;5012227;28;83120;-49
2023/11/06 06:35:31;;;;;;;;;;;13.10;69.90;;;;;;5013955;28;83122;-48
2023/11/06 06:37:57;;;;;;;;;;;13.10;69.90;;;;;;5014782;28;82295;-48
2023/11/06 06:40:23;;;;;;;;;;;13.10;69.80;;;;;;5016655;28;82458;-47
2023/11/06 06:42:48;;;;;;;;;;;13.10;69.80;;;;;;5016279;28;84409;-48
2023/11/06 06:45:14;;;;;;;;;;;13.10;69.80;;;;;;5014339;28;82069;-48
2023/11/06 06:47:40;;;;;;;;;;;13.10;69.90;;;;;;5015689;28;84392;-49
2023/11/06 06:50:05;;;;;;;;;;;13.10;69.80;;;;;;5016959;28;81207;-49
2023/11/06 06:52:31;;;;;;;;;;;13.10;69.90;;;;;;5016834;28;83375;-48
2023/11/06 06:54:56;;;;;;;;;;;13.10;70.00;;;;;;5012246;28;84246;-51
2023/11/06 06:57:22;;;;;;;;;;;13.20;69.70;;;;;;5011679;28;83085;-48
2023/11/06 06:59:48;;;;;;;;;;;13.10;69.80;;;;;;5019140;28;83058;-48
2023/11/06 07:02:13;;;;;;;;;;;13.10;69.70;;;;;;5016211;28;82907;-50
2023/11/06 07:04:40;;;;;;;;;;;13.10;69.90;;;;;;5018525;28;83789;-48
2023/11/06 07:07:06;;;;;;;;;;;13.10;69.70;;;;;;5014194;28;82846;-49
2023/11/06 07:09:32;;;;;;;;;;;13.10;69.90;;;;;;5016493;28;82038;-51
2023/11/06 07:11:58;;;;;;;;;;;13.10;69.80;;;;;;5012616;28;82171;-48
2023/11/06 07:14:24;;;;;;;;;;;13.10;69.90;;;;;;5014441;28;82262;-49
2023/11/06 07:16:50;;;;;;;;;;;13.10;69.80;;;;;;5013250;28;82229;-46
2023/11/06 07:19:17;;;;;;;;;;;13.10;69.90;;;;;;5020212;28;82273;-50
2023/11/06 07:21:43;;;;;;;;;;;13.10;69.90;;;;;;5020535;28;84121;-47
2023/11/06 07:24:09;;;;;;;;;;;13.10;69.80;;;;;;5035007;28;82889;-50
2023/11/06 07:26:35;;;;;;;;;;;13.10;69.80;;;;;;5029885;28;82892;-51
2023/11/06 07:29:00;;;;;;;;;;;13.10;70.10;;;;;;5034099;28;82371;-49
2023/11/06 07:31:26;;;;;;;;;;;13.10;70.10;;;;;;5026634;28;82399;-48
2023/11/06 07:33:52;;;;;;;;;;;13.10;70.00;;;;;;5023168;28;83299;-48
2023/11/06 07:36:17;;;;;;;;;;;13.10;70.00;;;;;;5033793;28;82437;-48
2023/11/06 07:38:43;;;;;;;;;;;13.10;70.10;;;;;;5028359;28;84234;-50
2023/11/06 07:41:12;;;;;;;;;;;13.20;70.00;;;;;;5028652;28;84620;-50
2023/11/06 07:43:38;;;;;;;;;;;13.20;70.00;;;;;;5026329;28;82193;-49
2023/11/06 07:46:04;;;;;;;;;;;13.20;70.00;;;;;;5035672;28;82820;-47
2023/11/06 07:48:29;;;;;;;;;;;13.20;70.00;;;;;;5036530;28;83255;-49
2023/11/06 07:50:55;;;;;;;;;;;13.20;70.10;;;;;;5021888;28;82742;-51
2023/11/06 07:53:20;;;;;;;;;;;13.10;70.10;;;;;;5029857;28;83023;-51
2023/11/06 07:55:47;;;;;;;;;;;13.20;70.10;;;;;;5030275;28;82263;-48
2023/11/06 07:58:13;;;;;;;;;;;13.20;70.10;;;;;;5028588;28;82128;-48
2023/11/06 08:00:40;;;;;;;;;;;13.20;70.00;;;;;;5024952;28;83716;-49
2023/11/06 08:03:06;;;;;;;;;;;13.20;70.00;;;;;;5032746;28;81310;-51
2023/11/06 08:05:31;;;;;;;;;;;13.20;70.60;;;;;;5038402;28;83212;-49
2023/11/06 08:07:57;;;;;;;;;;;13.20;70.00;;;;;;5028902;28;82071;-50
2023/11/06 08:10:27;;;;;;;;;;;13.20;70.00;;;;;;5025898;28;83092;-51
2023/11/06 08:12:53;;;;;;;;;;;13.20;70.00;;;;;;5032257;28;83081;-51
2023/11/06 08:15:19;;;;;;;;;;;13.20;70.00;;;;;;5031274;28;82108;-51
2023/11/06 08:17:44;;;;;;;;;;;13.20;70.00;;;;;;5026888;28;82299;-48
2023/11/06 08:20:10;;;;;;;;;;;13.30;70.10;;;;;;5031027;28;83131;-48
2023/11/06 08:22:36;;;;;;;;;;;13.30;69.90;;;;;;5032252;28;82115;-47
2023/11/06 08:25:01;;;;;;;;;;;13.20;69.70;;;;;;5034087;28;82573;-49
2023/11/06 08:27:27;;;;;;;;;;;13.30;69.70;;;;;;5025416;28;83573;-53
2023/11/06 08:29:55;;;;;;;;;;;13.20;69.80;;;;;;5027850;28;82478;-52
2023/11/06 08:32:20;;;;;;;;;;;13.30;69.60;;;;;;5032308;28;85367;-51
2023/11/06 08:34:47;;;;;;;;;;;13.20;69.70;;;;;;5031728;28;83426;-49
2023/11/06 08:37:13;;;;;;;;;;;13.20;69.60;;;;;;5037192;28;83917;-48
2023/11/06 08:39:45;;;;;;;;;;;13.30;69.70;;;;;;5028726;28;82885;-48
2023/11/06 08:42:11;;;;;;;;;;;13.30;69.60;;;;;;5032886;28;83764;-49
2023/11/06 08:44:37;;;;;;;;;;;13.30;69.60;;;;;;5036026;28;82428;-53
2023/11/06 08:47:03;;;;;;;;;;;13.30;69.60;;;;;;5030537;28;82222;-51
2023/11/06 08:49:28;;;;;;;;;;;13.30;69.70;;;;;;5025173;28;82108;-54
2023/11/06 08:51:54;;;;;;;;;;;13.20;69.70;;;;;;5029521;27;83622;-55
2023/11/06 08:54:20;;;;;;;;;;;13.30;69.70;;;;;;5036474;28;82243;-54
2023/11/06 08:56:45;;;;;;;;;;;13.30;69.70;;;;;;5029568;28;82655;-54
2023/11/06 08:59:12;;;;;;;;;;;13.30;69.90;;;;;;5029755;28;83900;-53
2023/11/06 09:01:38;;;;;;;;;;;13.30;69.90;;;;;;5023405;28;82213;-49
2023/11/06 09:04:03;;;;;;;;;;;13.30;69.60;;;;;;5030778;28;82527;-52
2023/11/06 09:06:29;;;;;;;;;;;13.30;70.00;;;;;;5029867;28;84254;-54
2023/11/06 09:08:55;;;;;;;;;;;13.30;69.80;;;;;;5023286;28;82288;-55
2023/11/06 09:11:20;;;;;;;;;;;13.30;69.90;;;;;;5021221;28;83249;-55
2023/11/06 09:13:46;;;;;;;;;;;13.40;69.90;;;;;;5034403;28;82791;-50
2023/11/06 09:16:11;;;;;;;;;;;13.30;69.90;;;;;;5023667;28;84874;-50
2023/11/06 09:18:39;;;;;;;;;;;13.40;70.10;;;;;;5023638;28;82074;-54
2023/11/06 09:21:07;;;;;;;;;;;13.30;70.10;;;;;;5024209;28;84124;-52
2023/11/06 09:23:33;;;;;;;;;;;13.40;69.90;;;;;;5029773;28;84123;-55
2023/11/06 09:25:58;;;;;;;;;;;13.40;69.80;;;;;;5030932;28;82921;-52
2023/11/06 09:28:25;;;;;;;;;;;13.40;69.90;;;;;;5027746;28;82084;-54
2023/11/06 09:30:50;;;;;;;;;;;13.40;69.90;;;;;;5032625;28;83225;-54
2023/11/06 09:33:16;;;;;;;;;;;13.40;70.00;;;;;;5029853;28;82273;-55
2023/11/06 09:35:41;;;;;;;;;;;13.40;69.90;;;;;;5029985;28;82045;-52
2023/11/06 09:38:07;;;;;;;;;;;13.40;70.00;;;;;;5024510;28;84012;-52
2023/11/06 09:40:32;;;;;;;;;;;13.40;70.10;;;;;;5024415;28;81366;-55
2023/11/06 09:42:58;;;;;;;;;;;13.40;70.00;;;;;;5030878;27;81925;-52
2023/11/06 09:45:24;;;;;;;;;;;13.40;70.00;;;;;;5021858;28;82806;-55
2023/11/06 09:47:51;;;;;;;;;;;13.50;70.10;;;;;;5018115;28;83231;-54
2023/11/06 09:50:20;;;;;;;;;;;13.40;70.10;;;;;;5028548;28;83917;-55
2023/11/06 09:52:49;;;;;;;;;;;13.40;70.10;;;;;;5023648;28;83095;-51
2023/11/06 09:55:18;;;;;;;;;;;13.50;70.10;;;;;;5021763;28;83401;-55
2023/11/06 09:57:48;;;;;;;;;;;13.50;70.20;;;;;;5016922;27;83084;-51
2023/11/06 10:00:16;;;;;;;;;;;13.50;70.20;;;;;;5032701;28;81937;-48
2023/11/06 10:02:44;;;;;;;;;;;13.50;70.10;;;;;;5035614;28;82944;-52
2023/11/06 10:05:14;;;;;;;;;;;13.60;70.10;;;;;;5031581;28;82229;-52
2023/11/06 10:07:42;;;;;;;;;;;13.50;70.20;;;;;;5031314;28;82534;-49
2023/11/06 10:10:18;;;;;;;;;;;13.50;70.20;;;;;;5032851;28;82225;-55
2023/11/06 10:12:44;;;;;;;;;;;13.50;70.10;;;;;;5032053;28;84520;-53
2023/11/06 10:15:13;;;;;;;;;;;13.50;70.20;;;;;;5028975;28;83371;-52
2023/11/06 10:17:39;;;;;;;;;;;13.50;70.20;;;;;;5031589;27;82824;-52
2023/11/06 10:20:08;;;;;;;;;;;13.60;70.20;;;;;;5032247;28;82946;-51
2023/11/06 10:22:34;;;;;;;;;;;13.50;70.40;;;;;;5034784;27;83022;-50
2023/11/06 10:25:00;;;;;;;;;;;13.60;70.40;;;;;;5034045;28;83566;-50
2023/11/06 10:27:33;;;;;;;;;;;13.60;70.80;;;;;;5037307;28;82183;-52
2023/11/06 10:30:07;;;;;;;;;;;13.60;70.30;;;;;;5034172;28;81570;-50
2023/11/06 10:32:33;;;;;;;;;;;13.60;70.80;;;;;;5034326;27;82995;-52
2023/11/06 10:35:00;;;;;;;;;;;13.60;70.30;;;;;;5031983;28;83703;-51
2023/11/06 10:37:28;;;;;;;;;;;13.60;70.40;;;;;;5033816;28;83009;-48
2023/11/06 10:39:54;;;;;;;;;;;13.60;70.30;;;;;;5034325;28;82852;-48
2023/11/06 10:42:23;;;;;;;;;;;13.60;70.50;;;;;;5036378;28;83502;-52
2023/11/06 10:44:53;;;;;;;;;;;13.60;70.40;;;;;;5029272;28;83070;-49
2023/11/06 10:47:22;;;;;;;;;;;13.60;70.40;;;;;;5033992;28;81934;-47
2023/11/06 10:49:52;;;;;;;;;;;13.70;70.50;;;;;;5035062;28;82030;-52
2023/11/06 10:52:18;;;;;;;;;;;13.70;70.50;;;;;;5037844;28;85159;-51
2023/11/06 10:54:47;;;;;;;;;;;13.60;70.50;;;;;;5037298;27;81516;-52
2023/11/06 10:57:16;;;;;;;;;;;13.70;70.50;;;;;;5041670;28;82201;-49
2023/11/06 10:59:41;;;;;;;;;;;13.70;70.50;;;;;;5040436;28;83338;-48
2023/11/06 11:02:08;;;;;;;;;;;13.70;70.60;;;;;;5038764;27;83131;-50
2023/11/06 11:04:35;;;;;;;;;;;13.70;70.60;;;;;;5038371;28;85057;-48
2023/11/06 11:07:03;;;;;;;;;;;13.70;70.50;;;;;;5038159;27;82148;-48
2023/11/06 11:09:30;;;;;;;;;;;13.70;70.50;;;;;;5036831;28;83841;-52
2023/11/06 11:11:56;;;;;;;;;;;13.70;70.50;;;;;;5035637;27;84206;-50
2023/11/06 11:14:21;;;;;;;;;;;13.70;70.70;;;;;;5037405;27;82442;-52
2023/11/06 11:16:50;;;;;;;;;;;13.80;70.50;;;;;;5036376;28;83774;-52
2023/11/06 11:19:22;;;;;;;;;;;13.80;70.50;;;;;;5039247;28;83902;-49
2023/11/06 11:22:08;;;;;;;;;;;13.80;70.20;;;;;;5049929;27;83939;-50
2023/11/06 11:24:45;;;;;;;;;;;13.80;70.30;;;;;;5038935;28;83758;-49
2023/11/06 11:27:12;;;;;;;;;;;13.80;70.30;;;;;;5035920;27;83007;-48
2023/11/06 11:29:53;;;;;;;;;;;13.80;69.90;;;;;;5036561;28;84876;-51
2023/11/06 11:32:21;;;;;;;;;;;13.80;70.10;;;;;;5038565;27;83177;-50
2023/11/06 11:34:47;;;;;;;;;;;13.80;70.20;;;;;;5035513;28;82219;-50
2023/11/06 11:37:31;;;;;;;;;;;13.80;70.40;;;;;;5036060;27;82432;-49
2023/11/06 11:39:58;;;;;;;;;;;13.80;70.30;;;;;;5031099;28;84281;-51
2023/11/06 11:42:24;;;;;;;;;;;13.80;70.30;;;;;;5040622;28;82161;-51
2023/11/06 11:44:56;;;;;;;;;;;13.80;70.50;;;;;;5040429;28;83751;-50
2023/11/06 11:47:21;;;;;;;;;;;13.80;70.60;;;;;;5038243;28;84569;-52
2023/11/06 11:49:47;;;;;;;;;;;13.80;70.50;;;;;;5038369;28;82972;-52
2023/11/06 11:52:22;;;;;;;;;;;13.90;70.60;;;;;;5033323;28;85924;-51
2023/11/06 11:54:47;;;;;;;;;;;13.90;70.50;;;;;;5035693;28;82511;-50
2023/11/06 11:57:13;;;;;;;;;;;13.90;70.50;;;;;;5039807;28;82448;-52
2023/11/06 11:59:40;;;;;;;;;;;13.90;70.40;;;;;;5036972;27;83029;-56
2023/11/06 12:02:07;;;;;;;;;;;14.00;70.50;;;;;;5033708;27;83069;-51
2023/11/06 12:04:33;;;;;;;;;;;14.00;70.40;;;;;;5035986;28;82128;-54
2023/11/06 12:06:58;;;;;;;;;;;14.00;70.20;;;;;;5035396;27;84337;-53
2023/11/06 12:09:24;;;;;;;;;;;14.00;70.30;;;;;;5032851;28;82569;-56
2023/11/06 12:11:50;;;;;;;;;;;14.00;70.40;;;;;;5037975;28;84507;-56
2023/11/06 12:14:15;;;;;;;;;;;14.00;70.30;;;;;;5036937;28;82152;-54
2023/11/06 12:16:47;;;;;;;;;;;14.00;70.30;;;;;;5034711;28;82970;-55
2023/11/06 12:19:13;;;;;;;;;;;14.00;70.20;;;;;;5030443;27;84414;-57
2023/11/06 12:21:39;;;;;;;;;;;14.00;70.10;;;;;;5039192;28;82488;-54
2023/11/06 12:24:05;;;;;;;;;;;14.00;70.10;;;;;;5035853;28;82459;-56
2023/11/06 12:26:30;;;;;;;;;;;14.10;70.20;;;;;;5040775;28;85986;-54
2023/11/06 12:28:56;;;;;;;;;;;14.10;70.30;;;;;;5036693;28;82656;-55
2023/11/06 12:31:23;;;;;;;;;;;14.10;70.00;;;;;;5042149;28;82456;-57
2023/11/06 12:33:49;;;;;;;;;;;14.10;70.70;;;;;;5038802;28;81454;-53
2023/11/06 12:36:25;;;;;;;;;;;14.10;70.00;;;;;;5032849;28;83083;-57
2023/11/06 12:38:51;;;;;;;;;;;14.10;70.10;;;;;;5034129;28;84714;-52
2023/11/06 12:41:29;;;;;;;;;;;14.20;70.10;;;;;;5034068;28;83110;-54
2023/11/06 12:43:55;;;;;;;;;;;14.20;70.10;;;;;;5036305;28;83911;-51
2023/11/06 12:46:21;;;;;;;;;;;14.10;69.80;;;;;;5036506;28;83219;-57
2023/11/06 12:48:51;;;;;;;;;;;14.20;70.10;;;;;;5032384;28;82176;-55
2023/11/06 12:51:18;;;;;;;;;;;14.20;69.80;;;;;;5035503;28;82163;-54
2023/11/06 12:53:46;;;;;;;;;;;14.20;69.90;;;;;;5036904;27;84560;-55
2023/11/06 12:56:11;;;;;;;;;;;14.20;70.00;;;;;;5036693;28;83722;-53
2023/11/06 12:58:37;;;;;;;;;;;14.20;69.50;;;;;;5037086;27;83984;-54
2023/11/06 13:01:04;;;;;;;;;;;14.20;69.60;;;;;;5033651;27;82080;-52
2023/11/06 13:03:30;;;;;;;;;;;14.20;69.60;;;;;;5034709;28;83212;-52
2023/11/06 13:05:56;;;;;;;;;;;14.20;69.10;;;;;;5034079;27;84574;-50
2023/11/06 13:08:23;;;;;;;;;;;14.20;69.80;;;;;;5038225;27;82891;-47
2023/11/06 13:10:49;;;;;;;;;;;14.20;69.30;;;;;;5035949;28;83925;-50
2023/11/06 13:13:14;;;;;;;;;;;14.20;69.00;;;;;;5040213;28;84001;-52
2023/11/06 13:15:41;;;;;;;;;;;14.20;69.20;;;;;;5036333;28;82513;-54
2023/11/06 13:18:10;;;;;;;;;;;14.30;69.20;;;;;;5033775;27;83843;-51
2023/11/06 13:20:43;;;;;;;;;;;14.20;69.20;;;;;;5037029;28;82235;-54
2023/11/06 13:23:10;;;;;;;;;;;14.20;68.40;;;;;;5037552;28;82479;-51
2023/11/06 13:25:35;;;;;;;;;;;14.30;68.70;;;;;;5028766;28;83779;-50
2023/11/06 13:28:01;;;;;;;;;;;14.30;68.80;;;;;;5032356;27;83403;-53
2023/11/06 13:30:28;;;;;;;;;;;14.30;68.80;;;;;;5033706;27;84708;-51
2023/11/06 13:32:54;;;;;;;;;;;14.30;68.50;;;;;;5037262;27;83025;-50
2023/11/06 13:35:19;;;;;;;;;;;14.30;68.50;;;;;;5037264;28;83244;-55
2023/11/06 13:37:48;;;;;;;;;;;14.30;68.80;;;;;;5031273;28;82947;-49
2023/11/06 13:40:35;;;;;;;;;;;14.40;68.50;;;;;;5039347;28;82292;-53
2023/11/06 13:43:01;;;;;;;;;;;14.30;68.30;;;;;;5030874;28;84006;-52
2023/11/06 13:45:27;;;;;;;;;;;14.30;68.70;;;;;;5031397;27;82875;-49
2023/11/06 13:48:11;;;;;;;;;;;14.40;68.80;;;;;;5034127;27;81662;-49
2023/11/06 13:50:46;;;;;;;;;;;14.40;68.70;;;;;;5038562;28;82470;-48
2023/11/06 13:53:25;;;;;;;;;;;14.40;68.60;;;;;;5031687;28;85909;-51
2023/11/06 13:55:50;;;;;;;;;;;14.40;68.70;;;;;;5031996;28;82965;-51
2023/11/06 13:58:16;;;;;;;;;;;14.40;68.80;;;;;;5037445;27;82513;-50
2023/11/06 14:01:05;;;;;;;;;;;14.40;68.60;;;;;;5031967;28;82072;-49
2023/11/06 14:03:27;;;;;;;;;;;14.40;68.60;;;;;;5035647;28;82038;-51
2023/11/06 14:05:53;;;;;;;;;;;14.50;68.60;;;;;;5032761;28;83144;-50
2023/11/06 14:08:20;;;;;;;;;;;14.50;68.70;;;;;;5037217;28;82022;-53
2023/11/06 14:10:46;;;;;;;;;;;14.50;68.40;;;;;;5035450;28;83849;-53
2023/11/06 14:13:18;;;;;;;;;;;14.40;68.50;;;;;;5036619;28;83739;-49